Time;durP1;ratioP1;P1;durP2;ratioP2;P2;SDS_P1;SDS_P2;PMS_P1;PMS_P2;Temp;Humidity;BMP_temperature;BMP_pressure;BME280_temperature;BME280_humidity;BME280_pressure;Samples;Min_cycle;Max_cycle;Signal;HPM_P1;HPM_P2
2023/10/11 00:00:33;;;;;;;31.25;18.30;;;15.30;99.90;;;;;;4956394;29;20035;-76
2023/10/11 00:03:05;;;;;;;31.23;18.63;;;15.40;99.90;;;;;;4953569;29;20379;-76
2023/10/11 00:05:41;;;;;;;25.80;17.58;;;15.30;99.90;;;;;;4957036;29;20059;-76
2023/10/11 00:08:13;;;;;;;29.92;18.17;;;15.30;99.90;;;;;;4955813;29;20034;-76
2023/10/11 00:10:47;;;;;;;27.48;17.77;;;15.20;99.90;;;;;;4956256;29;20035;-78
2023/10/11 00:13:17;;;;;;;25.85;17.60;;;15.30;99.90;;;;;;4953438;29;20046;-78
2023/10/11 00:15:48;;;;;;;27.98;18.15;;;15.20;99.90;;;;;;4956361;29;20491;-77
2023/10/11 00:18:18;;;;;;;27.53;18.37;;;15.20;99.90;;;;;;4956437;29;20043;-78
2023/10/11 00:20:52;;;;;;;22.77;17.10;;;15.30;99.90;;;;;;4951726;29;20035;-78
2023/10/11 00:23:22;;;;;;;28.08;18.30;;;15.30;99.90;;;;;;4955565;29;20152;-78
2023/10/11 00:25:50;;;;;;;26.85;17.67;;;15.30;99.90;;;;;;4955550;29;20020;-76
2023/10/11 00:28:18;;;;;;;26.58;17.63;;;15.30;99.90;;;;;;4955703;29;20019;-76
2023/10/11 00:30:47;;;;;;;26.70;17.67;;;15.30;99.90;;;;;;4955086;29;20045;-79
2023/10/11 00:33:13;;;;;;;26.38;18.80;;;15.20;99.90;;;;;;4956316;29;20034;-76
2023/10/11 00:35:47;;;;;;;27.50;17.77;;;15.20;99.90;;;;;;4954923;29;20035;-77
2023/10/11 00:38:29;;;;;;;27.70;18.38;;;15.10;99.90;;;;;;4956176;29;20082;-76
2023/10/11 00:41:12;;;;;;;23.70;16.40;;;15.10;99.90;;;;;;4954587;29;20105;-77
2023/10/11 00:43:39;;;;;;;20.02;13.90;;;15.00;99.90;;;;;;4940560;29;20034;-77
2023/10/11 00:46:10;;;;;;;28.25;17.17;;;15.00;99.90;;;;;;4951387;29;20036;-76
2023/10/11 00:48:37;;;;;;;27.65;18.35;;;15.00;99.90;;;;;;4953832;29;20031;-78
2023/10/11 00:51:07;;;;;;;26.40;17.30;;;14.90;99.90;;;;;;4953928;29;20137;-77
2023/10/11 00:53:34;;;;;;;26.38;17.67;;;14.80;99.90;;;;;;4954402;29;20114;-76
2023/10/11 00:56:04;;;;;;;26.25;18.92;;;14.80;99.90;;;;;;4954044;29;20134;-76
2023/10/11 00:58:30;;;;;;;24.83;17.95;;;14.80;99.90;;;;;;4954863;29;20023;-76
2023/10/11 01:00:59;;;;;;;34.67;19.08;;;14.90;99.90;;;;;;4952064;29;20106;-76
2023/10/11 01:03:25;;;;;;;30.52;19.30;;;14.70;99.90;;;;;;4932802;29;20028;-75
2023/10/11 01:05:55;;;;;;;30.10;19.73;;;14.70;99.90;;;;;;4952844;29;20023;-77
2023/10/11 01:08:21;;;;;;;29.20;19.83;;;14.70;99.90;;;;;;4954933;29;20509;-77
2023/10/11 01:10:47;;;;;;;30.70;19.50;;;14.60;99.90;;;;;;4953547;29;20035;-77
2023/10/11 01:13:14;;;;;;;29.95;19.17;;;14.60;99.90;;;;;;4954449;29;20109;-76
2023/10/11 01:15:43;;;;;;;29.17;18.85;;;14.40;99.90;;;;;;4948880;29;20043;-76
2023/10/11 01:18:12;;;;;;;25.38;19.42;;;14.40;99.90;;;;;;4923082;29;20031;-77
2023/10/11 01:20:41;;;;;;;29.75;20.65;;;14.30;99.90;;;;;;4955389;29;20030;-77
2023/10/11 01:23:07;;;;;;;30.77;20.98;;;14.30;99.90;;;;;;4953914;29;20386;-77
2023/10/11 01:25:33;;;;;;;27.25;19.95;;;14.30;99.90;;;;;;4953073;29;20121;-76
2023/10/11 01:28:00;;;;;;;30.83;21.48;;;14.10;99.90;;;;;;4954314;29;20090;-76
2023/10/11 01:30:27;;;;;;;38.42;20.05;;;14.20;99.90;;;;;;4954416;29;20019;-76
2023/10/11 01:32:57;;;;;;;31.40;21.83;;;14.10;99.90;;;;;;4954582;29;20023;-76
2023/10/11 01:35:28;;;;;;;32.30;21.90;;;14.10;99.90;;;;;;4951921;29;20557;-76
2023/10/11 01:37:55;;;;;;;32.20;20.00;;;14.20;99.90;;;;;;4937892;29;20506;-76
2023/10/11 01:40:21;;;;;;;32.17;23.00;;;14.20;99.90;;;;;;4955014;29;20054;-76
2023/10/11 01:42:49;;;;;;;28.48;21.63;;;14.30;99.90;;;;;;4955200;29;20063;-76
2023/10/11 01:45:17;;;;;;;35.70;22.58;;;14.20;99.90;;;;;;4921988;29;20022;-77
2023/10/11 01:47:46;;;;;;;33.25;21.25;;;14.20;99.90;;;;;;4955090;29;20051;-76
2023/10/11 01:50:14;;;;;;;31.17;21.52;;;14.20;99.90;;;;;;4953957;29;20023;-76
2023/10/11 01:52:40;;;;;;;30.80;21.75;;;14.20;99.90;;;;;;4952028;29;20039;-76
2023/10/11 01:55:10;;;;;;;33.53;20.77;;;14.20;99.90;;;;;;4954884;29;20028;-75
2023/10/11 01:57:39;;;;;;;32.38;20.50;;;14.20;99.90;;;;;;4951124;28;20035;-76
2023/10/11 02:00:13;;;;;;;27.75;20.25;;;14.10;99.90;;;;;;4925099;29;20086;-77
2023/10/11 02:02:47;;;;;;;29.20;19.85;;;14.10;99.90;;;;;;4953322;29;20039;-76
2023/10/11 02:05:15;;;;;;;26.60;20.08;;;14.10;99.90;;;;;;4939958;29;20079;-76
2023/10/11 02:07:41;;;;;;;27.73;18.80;;;14.10;99.90;;;;;;4906638;29;20106;-76
2023/10/11 02:10:12;;;;;;;29.05;19.45;;;14.00;99.90;;;;;;4952416;29;20031;-75
2023/10/11 02:12:46;;;;;;;27.90;18.48;;;14.00;99.90;;;;;;4954471;29;20026;-76
2023/10/11 02:15:21;;;;;;;33.70;19.70;;;14.00;99.90;;;;;;4949968;29;20032;-76
2023/10/11 02:17:51;;;;;;;28.73;18.85;;;13.90;99.90;;;;;;4953893;29;20502;-76
2023/10/11 02:20:21;;;;;;;30.20;19.70;;;13.90;99.90;;;;;;4954398;29;20046;-76
2023/10/11 02:22:51;;;;;;;32.92;21.27;;;13.80;99.90;;;;;;4936947;29;20053;-78
2023/10/11 02:25:24;;;;;;;36.83;22.35;;;13.80;99.90;;;;;;4954340;29;20023;-76
2023/10/11 02:27:55;;;;;;;41.03;22.45;;;13.80;99.90;;;;;;4952542;29;20035;-75
2023/10/11 02:30:25;;;;;;;37.58;23.27;;;13.80;99.90;;;;;;4942069;29;20472;-76
2023/10/11 02:32:58;;;;;;;36.65;23.90;;;13.80;99.90;;;;;;4947959;28;20036;-77
2023/10/11 02:35:26;;;;;;;;;;;13.80;99.90;;;;;;4950679;28;20122;-77
2023/10/11 02:37:55;;;;;;;35.60;23.05;;;13.80;99.90;;;;;;4951250;29;19921;-75
2023/10/11 02:40:24;;;;;;;36.75;22.45;;;13.80;99.90;;;;;;4945550;29;20031;-75
2023/10/11 02:42:55;;;;;;;37.75;24.00;;;13.90;99.90;;;;;;4942319;29;20027;-77
2023/10/11 02:45:23;;;;;;;36.53;22.75;;;13.80;99.90;;;;;;4925794;29;20027;-77
2023/10/11 02:47:50;;;;;;;36.55;23.45;;;13.80;99.90;;;;;;4951836;29;20565;-76
2023/10/11 02:50:22;;;;;;;39.33;25.27;;;13.80;99.90;;;;;;4953134;29;20534;-75
2023/10/11 02:52:58;;;;;;;32.78;23.60;;;13.70;99.90;;;;;;4942287;29;20570;-76
2023/10/11 02:55:26;;;;;;;36.03;23.23;;;13.70;99.90;;;;;;4950353;29;20114;-75
2023/10/11 02:58:06;;;;;;;33.38;23.05;;;13.70;99.90;;;;;;4944840;29;20026;-78
2023/10/11 03:00:33;;;;;;;31.73;21.88;;;13.70;99.90;;;;;;4953115;29;20024;-76
2023/10/11 03:03:00;;;;;;;31.25;21.40;;;13.60;99.90;;;;;;4934488;29;20028;-77
2023/10/11 03:05:27;;;;;;;34.75;23.45;;;13.60;99.90;;;;;;4934232;29;20122;-76
2023/10/11 03:08:13;;;;;;;31.92;20.42;;;13.60;99.90;;;;;;4935869;29;20149;-76
2023/10/11 03:10:45;;;;;;;30.30;21.63;;;13.60;99.90;;;;;;4939039;29;20082;-77
2023/10/11 03:13:19;;;;;;;31.08;21.90;;;13.60;99.90;;;;;;4957025;29;20027;-76
2023/10/11 03:15:56;;;;;;;30.98;20.85;;;13.50;99.90;;;;;;4957985;29;20590;-76
2023/10/11 03:18:27;;;;;;;30.30;21.08;;;13.50;99.90;;;;;;4945719;29;20204;-76
2023/10/11 03:21:07;;;;;;;28.92;19.65;;;13.50;99.90;;;;;;4955022;29;20031;-77
2023/10/11 03:23:43;;;;;;;29.23;20.08;;;13.50;99.90;;;;;;4943939;29;20023;-76
2023/10/11 03:28:57;;;;;;;33.40;20.17;;;13.50;99.90;;;;;;4958211;29;20042;-76
2023/10/11 03:31:31;;;;;;;29.98;20.08;;;13.60;99.90;;;;;;4940979;29;20035;-76
2023/10/11 03:34:10;;;;;;;29.10;20.40;;;13.40;99.90;;;;;;4958134;29;20027;-77
2023/10/11 03:36:43;;;;;;;32.45;20.63;;;13.40;99.90;;;;;;4957928;29;20035;-76
2023/10/11 03:39:15;;;;;;;31.17;20.75;;;13.30;99.90;;;;;;4957929;29;20023;-77
2023/10/11 03:41:47;;;;;;;;;;;13.30;99.90;;;;;;4957971;29;20431;-78
2023/10/11 03:44:17;;;;;;;31.95;20.33;;;13.30;99.90;;;;;;4957625;29;19914;-78
2023/10/11 03:46:56;;;;;;;29.17;19.85;;;13.30;99.90;;;;;;4957718;29;20071;-76
2023/10/11 03:51:50;;;;;;;31.70;21.17;;;13.30;99.90;;;;;;4957763;29;20106;-77
2023/10/11 03:54:23;;;;;;;29.15;19.17;;;13.30;99.90;;;;;;4957840;29;20038;-77
2023/10/11 03:56:53;;;;;;;32.42;20.58;;;13.20;99.90;;;;;;4957264;29;20035;-76
2023/10/11 03:59:25;;;;;;;33.65;19.77;;;13.30;99.90;;;;;;4957508;29;20024;-76
2023/10/11 04:01:54;;;;;;;;;;;13.30;99.90;;;;;;4945996;29;20379;-76
2023/10/11 04:04:21;;;;;;;27.60;17.98;;;13.40;99.90;;;;;;4957496;29;19969;-78
2023/10/11 04:06:51;;;;;;;29.73;20.88;;;13.30;99.90;;;;;;4957421;29;20042;-76
2023/10/11 04:12:16;;;;;;;29.33;17.88;;;13.30;99.90;;;;;;4917296;29;20044;-76
2023/10/11 04:14:44;;;;;;;36.72;19.70;;;13.30;99.90;;;;;;4911257;29;20542;-76
2023/10/11 04:20:17;;;;;;;62.60;21.42;;;13.20;99.90;;;;;;4914317;29;20048;-76
2023/10/11 04:22:51;;;;;;;49.45;19.88;;;13.10;99.90;;;;;;4909515;29;20048;-77
2023/10/11 04:25:22;;;;;;;30.15;18.88;;;13.10;99.90;;;;;;4911467;29;20489;-77
2023/10/11 04:27:55;;;;;;;38.28;19.58;;;13.10;99.90;;;;;;4916986;29;20040;-76
2023/10/11 04:30:26;;;;;;;;;;;13.10;99.90;;;;;;4905167;29;20072;-76
2023/10/11 04:32:56;;;;;;;38.42;20.02;;;13.20;99.90;;;;;;4916806;29;19918;-77
2023/10/11 04:35:25;;;;;;;30.95;18.20;;;13.20;99.90;;;;;;4916594;29;20036;-76
2023/10/11 04:38:01;;;;;;;29.23;18.92;;;13.20;99.90;;;;;;4916638;29;20047;-76
2023/10/11 04:43:07;;;;;;;30.38;18.73;;;13.30;99.90;;;;;;4916579;29;20134;-75
2023/10/11 04:45:46;;;;;;;27.13;18.10;;;13.30;99.90;;;;;;4920488;29;20040;-75
2023/10/11 04:48:29;;;;;;;37.30;19.33;;;13.20;99.90;;;;;;4942762;29;20083;-76
2023/10/11 04:51:07;;;;;;;37.17;17.85;;;13.20;99.90;;;;;;4956694;29;20027;-77
2023/10/11 04:59:27;;;;;;;48.83;19.08;;;13.10;99.90;;;;;;4878838;29;20136;-75
2023/10/11 05:04:33;;;;;;;39.40;23.50;;;13.00;99.90;;;;;;4878836;29;20029;-77
2023/10/11 05:07:09;;;;;;;38.90;22.42;;;13.00;99.90;;;;;;4878531;29;20037;-75
2023/10/11 05:09:39;;;;;;;41.97;23.60;;;13.00;99.90;;;;;;4878672;29;20134;-75
2023/10/11 05:15:18;;;;;;;37.17;19.52;;;13.00;99.90;;;;;;4878553;29;20398;-76
2023/10/11 05:27:56;;;;;;;48.30;21.17;;;13.00;99.90;;;;;;4859026;29;20455;-75
2023/10/11 05:51:43;;;;;;;45.10;21.88;;;13.50;99.90;;;;;;4895718;29;20044;-76
2023/10/11 05:54:09;;;;;;;;;;;13.60;99.90;;;;;;4886918;29;20049;-77
2023/10/11 05:56:38;;;;;;;37.38;21.77;;;13.70;99.90;;;;;;4882301;29;19995;-76
2023/10/11 05:59:08;;;;;;;36.45;21.83;;;13.80;99.90;;;;;;4908897;29;20102;-76
2023/10/11 06:01:34;;;;;;;31.58;20.70;;;13.80;99.90;;;;;;4954740;29;20355;-75
2023/10/11 06:04:03;;;;;;;38.67;23.02;;;14.00;99.90;;;;;;4955091;29;20019;-76
2023/10/11 06:06:38;;;;;;;38.58;21.83;;;14.10;99.90;;;;;;4945517;29;20035;-75
2023/10/11 06:09:05;;;;;;;43.10;25.27;;;14.30;99.90;;;;;;4949004;29;20110;-76
2023/10/11 06:11:38;;;;;;;35.92;21.52;;;14.50;99.90;;;;;;4951419;29;20042;-75
2023/10/11 06:14:06;;;;;;;34.03;21.77;;;14.70;99.90;;;;;;4944513;29;20498;-76
2023/10/11 06:16:43;;;;;;;32.00;20.83;;;14.80;99.90;;;;;;4962951;28;20035;-75
2023/10/11 06:19:25;;;;;;;33.20;21.75;;;15.00;99.90;;;;;;4954663;29;20360;-75
2023/10/11 06:21:57;;;;;;;38.20;20.88;;;15.20;99.90;;;;;;4937895;29;20043;-76
2023/10/11 06:24:30;;;;;;;34.05;21.15;;;15.30;99.90;;;;;;4955154;29;20031;-76
2023/10/11 06:27:11;;;;;;;33.72;21.70;;;15.50;99.90;;;;;;4942509;29;20067;-77
2023/10/11 06:29:38;;;;;;;41.08;22.33;;;15.60;99.90;;;;;;4953967;29;20062;-76
2023/10/11 06:32:11;;;;;;;31.92;21.77;;;15.80;99.90;;;;;;4942790;29;20073;-77
2023/10/11 06:34:38;;;;;;;33.83;22.35;;;16.00;99.90;;;;;;4945319;29;20023;-76
2023/10/11 06:37:06;;;;;;;29.77;20.65;;;15.90;99.90;;;;;;4953158;29;20557;-77
2023/10/11 06:42:12;;;;;;;33.65;19.38;;;16.00;99.90;;;;;;4952475;29;20023;-77
2023/10/11 06:44:52;;;;;;;32.25;19.73;;;16.20;99.90;;;;;;4948381;28;20111;-77
2023/10/11 06:47:21;;;;;;;29.05;18.77;;;16.30;99.90;;;;;;4943219;29;20058;-77
2023/10/11 06:49:54;;;;;;;27.83;17.38;;;16.30;99.90;;;;;;4953020;29;20035;-77
2023/10/11 06:52:25;;;;;;;26.92;19.80;;;16.30;99.90;;;;;;4945069;29;20379;-77
2023/10/11 06:55:07;;;;;;;26.30;18.08;;;15.90;99.90;;;;;;4951726;29;20486;-76
2023/10/11 06:57:40;;;;;;;30.25;19.20;;;15.80;99.90;;;;;;4954804;29;20035;-77
2023/10/11 07:00:28;;;;;;;30.42;19.33;;;15.60;99.90;;;;;;4941927;29;20475;-78
2023/10/11 07:05:47;;;;;;;36.25;24.67;;;15.90;99.90;;;;;;4954622;29;20023;-77
2023/10/11 07:08:18;;;;;;;32.10;22.27;;;16.20;99.90;;;;;;4954638;29;20064;-77
2023/10/11 07:10:45;;;;;;;30.98;21.00;;;16.40;99.90;;;;;;4954315;29;20383;-76
2023/10/11 07:13:15;;;;;;;28.05;19.63;;;16.60;99.90;;;;;;4949956;29;20477;-77
2023/10/11 07:15:49;;;;;;;26.33;19.02;;;16.80;99.90;;;;;;4931986;29;20049;-77
2023/10/11 07:18:27;;;;;;;27.65;19.42;;;16.50;99.90;;;;;;4954358;29;20039;-77
2023/10/11 07:23:46;;;;;;;27.60;20.45;;;16.60;99.90;;;;;;4953808;29;20356;-77
2023/10/11 07:28:59;;;;;;;23.70;15.18;;;16.60;99.90;;;;;;4954032;29;20031;-77
2023/10/11 07:31:32;;;;;;;23.80;17.52;;;16.60;99.90;;;;;;4953178;29;20027;-77
2023/10/11 07:33:59;;;;;;;27.60;18.80;;;16.60;99.90;;;;;;4953469;29;20058;-77
2023/10/11 07:36:25;;;;;;;23.42;15.93;;;16.80;99.90;;;;;;4950514;29;20051;-76
2023/10/11 07:38:55;;;;;;;25.65;15.23;;;16.90;99.90;;;;;;4943474;29;20030;-76
2023/10/11 07:41:28;;;;;;;22.80;16.38;;;16.80;99.90;;;;;;4951236;29;20031;-77
2023/10/11 07:43:56;;;;;;;25.77;15.77;;;16.90;99.90;;;;;;4953448;29;20031;-77
2023/10/11 07:46:23;;;;;;;23.67;14.93;;;17.20;99.90;;;;;;4948490;29;20059;-76
2023/10/11 07:48:54;;;;;;;22.75;14.90;;;17.20;99.90;;;;;;4954498;29;20028;-78
2023/10/11 07:51:20;;;;;;;27.35;14.88;;;17.50;99.90;;;;;;4954086;29;20042;-77
2023/10/11 07:53:45;;;;;;;24.38;15.20;;;17.80;99.90;;;;;;4954437;29;20045;-77
2023/10/11 07:56:15;;;;;;;23.20;14.68;;;18.10;99.90;;;;;;4954180;28;20035;-77
2023/10/11 07:58:45;;;;;;;21.10;14.05;;;18.20;99.90;;;;;;4957665;29;20027;-77
2023/10/11 08:01:15;;;;;;;26.05;15.15;;;18.40;99.90;;;;;;4957292;29;20038;-77
2023/10/11 08:03:44;;;;;;;20.17;12.98;;;18.50;99.90;;;;;;4957355;29;20086;-77
2023/10/11 08:06:14;;;;;;;19.25;13.52;;;18.60;99.90;;;;;;4957552;29;20463;-77
2023/10/11 08:08:40;;;;;;;21.05;13.77;;;18.80;99.90;;;;;;4951590;29;20027;-77
2023/10/11 08:11:22;;;;;;;23.23;15.10;;;19.10;99.90;;;;;;4955279;29;20027;-77
2023/10/11 08:13:53;;;;;;;18.73;11.93;;;19.30;99.90;;;;;;4944304;29;20031;-77
2023/10/11 08:16:19;;;;;;;18.75;12.40;;;19.20;99.90;;;;;;4951931;29;20036;-77
2023/10/11 08:18:49;;;;;;;23.88;18.17;;;19.40;99.90;;;;;;4951839;29;20034;-77
2023/10/11 08:21:18;;;;;;;20.90;13.63;;;19.60;99.90;;;;;;4954179;29;20038;-77
2023/10/11 08:23:44;;;;;;;18.75;12.98;;;19.80;99.90;;;;;;4964618;28;20092;-77
2023/10/11 08:26:14;;;;;;;19.27;12.82;;;19.90;99.90;;;;;;4952514;29;20039;-77
2023/10/11 08:28:48;;;;;;;20.85;14.48;;;20.00;99.90;;;;;;4952223;29;20023;-77
2023/10/11 08:31:35;;;;;;;24.42;16.13;;;20.10;99.90;;;;;;4957138;29;20046;-77
2023/10/11 08:34:03;;;;;;;19.15;13.13;;;20.30;99.90;;;;;;4946294;29;20070;-77
2023/10/11 08:36:33;;;;;;;19.58;13.93;;;20.50;99.90;;;;;;4957257;29;20094;-77
2023/10/11 08:39:08;;;;;;;21.75;15.38;;;20.40;99.90;;;;;;4957878;28;20347;-78
2023/10/11 08:41:35;;;;;;;29.25;22.73;;;20.40;99.90;;;;;;4966959;28;20030;-78
2023/10/11 08:44:08;;;;;;;22.48;15.30;;;20.50;99.90;;;;;;4960042;28;20023;-77
2023/10/11 08:46:36;;;;;;;24.50;15.73;;;20.50;99.90;;;;;;4944602;29;20047;-77
2023/10/11 08:49:02;;;;;;;20.33;14.20;;;20.60;99.90;;;;;;4960304;28;20493;-77
2023/10/11 08:51:36;;;;;;;23.42;16.92;;;20.80;99.90;;;;;;4932235;29;20027;-77
2023/10/11 08:54:11;;;;;;;18.60;12.77;;;20.90;99.90;;;;;;4957236;28;20022;-78
2023/10/11 08:56:43;;;;;;;18.05;13.77;;;21.10;99.90;;;;;;4956486;29;20043;-77
2023/10/11 08:59:14;;;;;;;19.10;12.13;;;21.30;99.90;;;;;;4956370;29;20032;-78
2023/10/11 09:01:45;;;;;;;20.05;13.25;;;21.40;99.90;;;;;;4959454;28;20356;-78
2023/10/11 09:04:13;;;;;;;22.70;15.80;;;21.40;99.90;;;;;;4957221;28;20028;-78
2023/10/11 09:06:43;;;;;;;21.85;15.05;;;21.40;99.90;;;;;;4955882;28;20061;-77
2023/10/11 09:09:15;;;;;;;19.70;11.38;;;21.40;99.90;;;;;;4954616;29;20037;-77
2023/10/11 09:12:22;;;;;;;23.77;11.02;;;21.50;99.90;;;;;;4939060;29;20023;-77
2023/10/11 09:15:04;;;;;;;19.60;11.15;;;21.60;99.90;;;;;;4956095;28;20459;-77
2023/10/11 09:17:38;;;;;;;19.17;10.02;;;21.60;99.90;;;;;;4955681;29;20513;-77
2023/10/11 09:20:40;;;;;;;18.30;9.38;;;21.60;99.90;;;;;;4952020;29;20098;-77
2023/10/11 09:22:56;;;;;;;17.20;8.75;;;21.80;99.90;;;;;;4955737;28;20086;-77
2023/10/11 09:25:23;;;;;;;17.23;9.35;;;21.80;99.90;;;;;;4947041;28;20460;-76
2023/10/11 09:27:50;;;;;;;17.20;9.75;;;21.90;99.90;;;;;;4968279;28;20119;-77
2023/10/11 09:30:20;;;;;;;17.92;9.80;;;22.10;99.90;;;;;;4955090;29;20023;-78
2023/10/11 09:32:58;;;;;;;17.23;9.98;;;22.20;99.90;;;;;;4950465;28;20419;-78
2023/10/11 09:35:27;;;;;;;20.38;9.55;;;22.20;99.90;;;;;;4955809;29;20024;-78
2023/10/11 09:37:58;;;;;;;17.52;9.10;;;22.20;99.90;;;;;;4958507;28;20471;-78
2023/10/11 09:40:36;;;;;;;13.57;7.47;;;22.30;99.90;;;;;;4960463;28;20546;-75
2023/10/11 09:43:02;;;;;;;17.13;9.18;;;22.40;99.90;;;;;;4943379;28;20035;-76
2023/10/11 09:45:44;;;;;;;15.30;7.95;;;22.60;99.90;;;;;;4945213;29;20107;-75
2023/10/11 09:48:17;;;;;;;11.65;7.07;;;22.60;99.90;;;;;;4953960;29;20076;-75
2023/10/11 09:50:43;;;;;;;13.18;8.68;;;22.70;99.90;;;;;;4954633;28;20180;-76
2023/10/11 09:53:13;;;;;;;15.55;8.63;;;22.80;99.90;;;;;;4955213;29;20027;-75
2023/10/11 09:56:32;;;;;;;14.15;7.70;;;22.80;98.70;;;;;;4962057;28;20417;-76
2023/10/11 09:59:22;;;;;;;20.75;8.70;;;22.90;98.10;;;;;;4919253;29;20075;-75
2023/10/11 10:01:56;;;;;;;14.73;8.75;;;22.70;95.40;;;;;;4955412;29;20035;-76
2023/10/11 10:05:04;;;;;;;15.32;8.77;;;22.60;95.30;;;;;;4955496;29;20364;-75
2023/10/11 10:10:12;;;;;;;13.43;7.13;;;22.90;96.30;;;;;;4955267;29;20035;-78
2023/10/11 10:12:56;;;;;;;16.00;8.45;;;23.00;96.30;;;;;;4955156;29;20034;-78
2023/10/11 10:15:23;;;;;;;12.60;7.38;;;23.00;96.00;;;;;;4955124;29;20046;-77
2023/10/11 10:18:00;;;;;;;17.08;8.15;;;23.00;95.70;;;;;;4955195;29;20379;-77
2023/10/11 10:20:50;;;;;;;12.85;7.60;;;22.90;95.80;;;;;;4954590;28;20038;-77
2023/10/11 10:23:15;;;;;;;15.43;8.40;;;22.60;93.90;;;;;;4954795;29;20047;-78
2023/10/11 10:25:48;;;;;;;15.02;7.03;;;22.80;96.60;;;;;;4955013;29;20026;-76
2023/10/11 10:28:34;;;;;;;11.45;6.93;;;22.70;94.10;;;;;;4955351;29;20066;-78
2023/10/11 10:31:04;;;;;;;12.20;6.85;;;22.90;95.60;;;;;;4942955;29;20019;-77
2023/10/11 10:33:35;;;;;;;12.23;6.97;;;23.00;95.40;;;;;;4955011;29;20345;-77
2023/10/11 10:36:20;;;;;;;12.65;7.10;;;22.90;94.50;;;;;;4955175;29;20405;-77
2023/10/11 10:39:00;;;;;;;18.13;5.05;;;23.00;95.30;;;;;;4954735;29;20031;-77
2023/10/11 10:41:33;;;;;;;10.98;5.25;;;22.90;93.50;;;;;;4955121;29;20498;-77
2023/10/11 10:44:09;;;;;;;8.45;4.90;;;22.90;94.10;;;;;;4942908;29;20015;-77
2023/10/11 10:46:49;;;;;;;11.10;5.60;;;22.80;93.50;;;;;;4954561;29;20062;-77
2023/10/11 10:49:19;;;;;;;9.82;5.47;;;22.70;94.00;;;;;;4954874;29;20382;-78
2023/10/11 10:51:48;;;;;;;12.18;5.40;;;22.70;93.70;;;;;;4954695;29;20057;-78
2023/10/11 10:54:22;;;;;;;10.50;4.80;;;22.70;94.10;;;;;;4954769;29;20024;-77
2023/10/11 10:56:48;;;;;;;11.02;5.18;;;22.80;95.30;;;;;;4954588;29;20031;-79
2023/10/11 10:59:20;;;;;;;12.25;5.95;;;22.90;94.60;;;;;;4954821;29;20505;-77
2023/10/11 11:01:48;;;;;;;11.52;6.18;;;22.70;94.30;;;;;;4954896;29;20031;-78
2023/10/11 11:04:20;;;;;;;10.18;5.53;;;22.70;94.60;;;;;;4954494;29;20083;-77
2023/10/11 11:06:48;;;;;;;9.25;5.80;;;22.80;94.40;;;;;;4954868;29;20118;-78
2023/10/11 11:09:19;;;;;;;9.90;6.20;;;22.80;93.90;;;;;;4954689;29;20090;-78
2023/10/11 11:11:49;;;;;;;10.65;5.78;;;22.90;94.00;;;;;;4954927;29;20031;-77
2023/10/11 11:14:19;;;;;;;10.23;5.50;;;22.90;92.90;;;;;;4954742;29;20035;-77
2023/10/11 11:16:59;;;;;;;14.00;6.45;;;22.80;93.30;;;;;;4954610;29;20102;-78
2023/10/11 11:19:34;;;;;;;11.02;6.75;;;22.90;93.20;;;;;;4954514;29;20023;-78
2023/10/11 11:22:15;;;;;;;14.35;5.90;;;22.70;92.90;;;;;;4954668;29;20036;-78
2023/10/11 11:24:45;;;;;;;9.40;6.10;;;22.80;93.50;;;;;;4943782;29;20032;-78
2023/10/11 11:27:29;;;;;;;16.73;6.25;;;23.00;93.80;;;;;;4954303;29;20086;-77
2023/10/11 11:30:02;;;;;;;13.20;6.15;;;22.60;92.40;;;;;;4954513;28;20031;-78
2023/10/11 11:32:45;;;;;;;10.90;5.53;;;22.80;93.40;;;;;;4956837;29;20031;-77
2023/10/11 11:35:34;;;;;;;14.10;6.28;;;22.80;92.80;;;;;;4957845;29;20090;-78
2023/10/11 11:38:01;;;;;;;10.18;5.65;;;22.70;92.90;;;;;;4957590;29;20066;-78
2023/10/11 11:40:47;;;;;;;10.20;5.63;;;22.90;93.20;;;;;;4951388;29;20016;-78
2023/10/11 11:43:20;;;;;;;11.02;5.85;;;22.90;93.40;;;;;;4955740;29;20045;-76
2023/10/11 11:45:56;;;;;;;10.73;5.65;;;23.00;93.80;;;;;;4960480;28;20027;-78
2023/10/11 11:48:25;;;;;;;40.63;9.38;;;23.00;92.50;;;;;;4957029;29;20042;-77
2023/10/11 11:50:55;;;;;;;11.35;4.70;;;23.00;92.50;;;;;;4955085;29;20102;-78
2023/10/11 11:53:21;;;;;;;10.52;6.15;;;23.10;92.30;;;;;;4952651;29;20498;-78
2023/10/11 11:55:47;;;;;;;11.57;5.88;;;23.20;92.50;;;;;;4953055;29;20110;-78
2023/10/11 11:58:16;;;;;;;9.88;5.45;;;23.20;92.00;;;;;;4953597;29;20050;-78
2023/10/11 12:00:59;;;;;;;9.18;5.28;;;23.10;91.20;;;;;;4957911;29;20054;-76
2023/10/11 12:03:25;;;;;;;9.90;5.00;;;23.10;92.10;;;;;;4944158;29;20098;-76
2023/10/11 12:05:52;;;;;;;11.77;5.22;;;23.10;92.10;;;;;;4951138;29;20123;-77
2023/10/11 12:08:21;;;;;;;8.73;4.82;;;23.20;91.70;;;;;;4956622;29;20027;-77
2023/10/11 12:10:49;;;;;;;11.82;5.38;;;23.20;91.00;;;;;;4957857;29;20033;-76
2023/10/11 12:13:23;;;;;;;11.65;5.90;;;23.20;91.30;;;;;;4954451;29;20030;-76
2023/10/11 12:15:54;;;;;;;10.57;5.60;;;23.10;90.30;;;;;;4955589;28;20039;-75
2023/10/11 12:18:33;;;;;;;24.67;6.13;;;23.00;90.80;;;;;;4956744;29;20431;-76
2023/10/11 12:21:02;;;;;;;11.32;5.80;;;23.10;91.20;;;;;;4957084;29;20418;-76
2023/10/11 12:23:28;;;;;;;11.75;5.70;;;23.20;90.90;;;;;;4955663;29;20531;-76
2023/10/11 12:25:54;;;;;;;12.60;6.22;;;23.30;91.20;;;;;;4952158;29;20039;-76
2023/10/11 12:28:22;;;;;;;14.15;6.57;;;23.20;90.40;;;;;;4957432;29;20023;-77
2023/10/11 12:30:48;;;;;;;11.10;6.15;;;23.20;90.50;;;;;;4956171;29;20660;-76
2023/10/11 12:33:14;;;;;;;11.18;6.30;;;23.10;90.20;;;;;;4950196;29;20031;-76
2023/10/11 12:35:40;;;;;;;15.65;6.15;;;23.20;90.90;;;;;;4955918;29;20035;-76
2023/10/11 12:38:12;;;;;;;15.95;6.65;;;23.10;90.30;;;;;;4956502;29;20031;-76
2023/10/11 12:40:40;;;;;;;11.52;5.53;;;23.10;90.30;;;;;;4957024;29;20078;-75
2023/10/11 12:43:07;;;;;;;12.18;5.55;;;23.20;90.80;;;;;;4956656;28;20031;-76
2023/10/11 12:45:41;;;;;;;11.20;6.13;;;23.20;90.80;;;;;;4956908;29;20031;-77
2023/10/11 12:48:10;;;;;;;10.25;5.22;;;23.30;90.90;;;;;;4956287;29;20039;-75
2023/10/11 12:50:38;;;;;;;11.27;5.55;;;23.30;90.30;;;;;;4956706;29;20027;-76
2023/10/11 12:53:11;;;;;;;10.23;5.05;;;23.20;90.10;;;;;;4956512;29;20036;-76
2023/10/11 12:55:41;;;;;;;12.88;4.97;;;23.20;88.20;;;;;;4956872;29;20483;-76
2023/10/11 12:58:14;;;;;;;10.98;5.68;;;23.10;88.40;;;;;;4956097;29;20400;-76
2023/10/11 13:00:51;;;;;;;13.18;5.30;;;23.10;88.40;;;;;;4956591;29;20053;-76
2023/10/11 13:03:26;;;;;;;9.50;5.00;;;23.10;89.10;;;;;;4956328;29;20031;-76
2023/10/11 13:05:52;;;;;;;11.95;5.57;;;23.20;87.60;;;;;;4956587;29;20402;-77
2023/10/11 13:08:24;;;;;;;9.75;5.60;;;23.20;88.20;;;;;;4956243;29;20023;-76
2023/10/11 13:10:51;;;;;;;14.05;5.40;;;23.00;87.70;;;;;;4956439;29;20395;-77
2023/10/11 13:13:18;;;;;;;14.88;5.80;;;23.10;90.00;;;;;;4956241;29;20156;-76
2023/10/11 13:15:58;;;;;;;13.73;5.70;;;23.20;89.70;;;;;;4955707;29;20035;-77
2023/10/11 13:18:29;;;;;;;11.60;7.18;;;23.30;88.70;;;;;;4953283;29;20043;-76
2023/10/11 13:20:56;;;;;;;10.93;5.65;;;23.30;89.30;;;;;;4949980;29;20020;-76
2023/10/11 13:23:28;;;;;;;9.73;5.93;;;23.30;87.30;;;;;;4955043;29;20025;-76
2023/10/11 13:26:01;;;;;;;13.70;5.55;;;23.20;86.80;;;;;;4954638;29;20118;-76
2023/10/11 13:28:27;;;;;;;;;;;23.30;88.80;;;;;;4951656;29;20041;-76
2023/10/11 13:30:59;;;;;;;11.63;5.50;;;23.30;89.10;;;;;;4955004;29;19965;-76
2023/10/11 13:33:25;;;;;;;9.50;5.90;;;23.40;90.50;;;;;;4955546;29;20058;-76
2023/10/11 13:35:50;;;;;;;12.30;5.55;;;23.30;90.70;;;;;;4955432;29;20058;-76
2023/10/11 13:38:17;;;;;;;10.02;5.70;;;23.40;91.50;;;;;;4955991;29;20491;-76
2023/10/11 13:40:46;;;;;;;13.55;5.97;;;23.50;91.60;;;;;;4955824;29;20392;-76
2023/10/11 13:43:13;;;;;;;11.88;5.72;;;23.50;92.60;;;;;;4954952;29;20106;-76
2023/10/11 13:45:42;;;;;;;17.95;7.13;;;23.50;90.50;;;;;;4955600;29;20027;-76
2023/10/11 13:48:11;;;;;;;11.32;6.65;;;23.50;90.30;;;;;;4955003;29;20040;-76
2023/10/11 13:50:41;;;;;;;10.98;6.20;;;23.40;85.70;;;;;;4955293;29;20107;-76
2023/10/11 13:53:13;;;;;;;20.30;6.70;;;23.40;86.50;;;;;;4955432;28;20035;-75
2023/10/11 13:55:42;;;;;;;8.73;5.75;;;23.40;86.10;;;;;;4954574;29;20034;-76
2023/10/11 13:58:11;;;;;;;11.20;5.85;;;23.30;86.30;;;;;;4955632;29;20376;-76
2023/10/11 14:05:40;;;;;;;13.23;5.78;;;23.30;85.50;;;;;;4955386;29;20051;-77
2023/10/11 14:08:24;;;;;;;15.40;5.95;;;23.30;86.50;;;;;;4955341;29;20069;-76
2023/10/11 14:10:54;;;;;;;11.57;5.10;;;23.30;86.40;;;;;;4955551;29;20027;-76